sensor_id;sensor_type;location;lat;lon;timestamp;P1;durP1;ratioP1;P2;durP2;ratioP2
52230;SDS011;38192;50.102;19.884;2022-07-24T00:00:37;28.65;;;24.15;;
52230;SDS011;38192;50.102;19.884;2022-07-24T00:03:04;35.60;;;24.77;;
52230;SDS011;38192;50.102;19.884;2022-07-24T00:05:30;36.42;;;26.85;;
52230;SDS011;38192;50.102;19.884;2022-07-24T00:07:56;28.45;;;23.50;;
52230;SDS011;38192;50.102;19.884;2022-07-24T00:10:22;34.00;;;23.70;;
52230;SDS011;38192;50.102;19.884;2022-07-24T00:12:48;34.75;;;24.17;;
52230;SDS011;38192;50.102;19.884;2022-07-24T00:15:14;36.90;;;25.13;;
52230;SDS011;38192;50.102;19.884;2022-07-24T00:17:39;33.55;;;23.35;;
52230;SDS011;38192;50.102;19.884;2022-07-24T00:20:05;34.45;;;26.38;;
52230;SDS011;38192;50.102;19.884;2022-07-24T00:22:33;32.78;;;25.88;;
52230;SDS011;38192;50.102;19.884;2022-07-24T00:24:58;36.10;;;26.58;;
52230;SDS011;38192;50.102;19.884;2022-07-24T00:27:24;33.15;;;25.98;;
52230;SDS011;38192;50.102;19.884;2022-07-24T00:29:50;39.67;;;26.98;;
52230;SDS011;38192;50.102;19.884;2022-07-24T00:32:16;37.17;;;26.90;;
52230;SDS011;38192;50.102;19.884;2022-07-24T00:34:42;38.55;;;27.60;;
52230;SDS011;38192;50.102;19.884;2022-07-24T00:37:08;31.42;;;25.67;;
52230;SDS011;38192;50.102;19.884;2022-07-24T00:39:33;38.38;;;28.55;;
52230;SDS011;38192;50.102;19.884;2022-07-24T00:41:59;43.90;;;25.77;;
52230;SDS011;38192;50.102;19.884;2022-07-24T00:44:25;33.95;;;26.27;;
52230;SDS011;38192;50.102;19.884;2022-07-24T00:46:51;32.72;;;26.35;;
52230;SDS011;38192;50.102;19.884;2022-07-24T00:49:18;37.30;;;28.38;;
52230;SDS011;38192;50.102;19.884;2022-07-24T00:51:46;39.05;;;28.83;;
52230;SDS011;38192;50.102;19.884;2022-07-24T00:54:13;35.25;;;28.00;;
52230;SDS011;38192;50.102;19.884;2022-07-24T00:56:43;40.85;;;29.15;;
52230;SDS011;38192;50.102;19.884;2022-07-24T00:59:11;37.35;;;30.30;;
52230;SDS011;38192;50.102;19.884;2022-07-24T01:01:37;42.47;;;30.33;;
52230;SDS011;38192;50.102;19.884;2022-07-24T01:04:03;47.90;;;34.85;;
52230;SDS011;38192;50.102;19.884;2022-07-24T01:06:29;40.67;;;32.75;;
52230;SDS011;38192;50.102;19.884;2022-07-24T01:08:55;48.88;;;35.35;;
52230;SDS011;38192;50.102;19.884;2022-07-24T01:11:21;52.67;;;37.30;;
52230;SDS011;38192;50.102;19.884;2022-07-24T01:13:48;40.92;;;33.88;;
52230;SDS011;38192;50.102;19.884;2022-07-24T01:16:15;47.75;;;35.58;;
52230;SDS011;38192;50.102;19.884;2022-07-24T01:18:41;49.13;;;38.33;;
52230;SDS011;38192;50.102;19.884;2022-07-24T01:21:07;50.53;;;37.03;;
52230;SDS011;38192;50.102;19.884;2022-07-24T01:23:33;50.50;;;36.75;;
52230;SDS011;38192;50.102;19.884;2022-07-24T01:25:59;47.55;;;37.78;;
52230;SDS011;38192;50.102;19.884;2022-07-24T01:28:25;51.53;;;36.70;;
52230;SDS011;38192;50.102;19.884;2022-07-24T01:30:51;50.45;;;40.03;;
52230;SDS011;38192;50.102;19.884;2022-07-24T01:33:17;50.53;;;40.95;;
52230;SDS011;38192;50.102;19.884;2022-07-24T01:35:43;48.00;;;39.45;;
52230;SDS011;38192;50.102;19.884;2022-07-24T01:38:09;47.47;;;37.72;;
52230;SDS011;38192;50.102;19.884;2022-07-24T01:40:36;55.10;;;40.90;;
52230;SDS011;38192;50.102;19.884;2022-07-24T01:43:02;44.97;;;37.58;;
52230;SDS011;38192;50.102;19.884;2022-07-24T01:45:28;50.45;;;39.67;;
52230;SDS011;38192;50.102;19.884;2022-07-24T01:47:54;47.28;;;37.47;;
52230;SDS011;38192;50.102;19.884;2022-07-24T01:50:19;46.50;;;37.80;;
52230;SDS011;38192;50.102;19.884;2022-07-24T01:52:46;42.05;;;35.15;;
52230;SDS011;38192;50.102;19.884;2022-07-24T01:55:11;55.60;;;40.92;;
52230;SDS011;38192;50.102;19.884;2022-07-24T01:57:37;47.72;;;37.95;;
52230;SDS011;38192;50.102;19.884;2022-07-24T02:00:04;48.40;;;36.42;;
52230;SDS011;38192;50.102;19.884;2022-07-24T02:02:39;48.35;;;38.35;;
52230;SDS011;38192;50.102;19.884;2022-07-24T02:05:05;47.33;;;41.75;;
52230;SDS011;38192;50.102;19.884;2022-07-24T02:07:32;49.10;;;39.92;;
52230;SDS011;38192;50.102;19.884;2022-07-24T02:09:58;43.80;;;37.33;;
52230;SDS011;38192;50.102;19.884;2022-07-24T02:12:24;44.25;;;38.00;;
52230;SDS011;38192;50.102;19.884;2022-07-24T02:14:49;41.97;;;37.38;;
52230;SDS011;38192;50.102;19.884;2022-07-24T02:17:15;45.78;;;37.85;;
52230;SDS011;38192;50.102;19.884;2022-07-24T02:19:41;48.67;;;35.92;;
52230;SDS011;38192;50.102;19.884;2022-07-24T02:22:07;48.45;;;36.90;;
52230;SDS011;38192;50.102;19.884;2022-07-24T02:24:33;47.15;;;36.20;;
52230;SDS011;38192;50.102;19.884;2022-07-24T02:26:59;46.50;;;37.45;;
52230;SDS011;38192;50.102;19.884;2022-07-24T02:29:24;53.20;;;42.92;;
52230;SDS011;38192;50.102;19.884;2022-07-24T02:31:51;43.55;;;35.75;;
52230;SDS011;38192;50.102;19.884;2022-07-24T02:34:16;39.72;;;33.42;;
52230;SDS011;38192;50.102;19.884;2022-07-24T02:36:42;42.85;;;35.72;;
52230;SDS011;38192;50.102;19.884;2022-07-24T02:39:08;46.03;;;35.00;;
52230;SDS011;38192;50.102;19.884;2022-07-24T02:41:34;42.42;;;33.92;;
52230;SDS011;38192;50.102;19.884;2022-07-24T02:44:00;37.80;;;32.97;;
52230;SDS011;38192;50.102;19.884;2022-07-24T02:46:26;37.92;;;33.00;;
52230;SDS011;38192;50.102;19.884;2022-07-24T02:48:51;38.65;;;33.72;;
52230;SDS011;38192;50.102;19.884;2022-07-24T02:51:17;37.78;;;33.67;;
52230;SDS011;38192;50.102;19.884;2022-07-24T02:53:43;37.17;;;31.15;;
52230;SDS011;38192;50.102;19.884;2022-07-24T02:56:09;36.90;;;28.60;;
52230;SDS011;38192;50.102;19.884;2022-07-24T02:58:35;43.78;;;33.10;;
52230;SDS011;38192;50.102;19.884;2022-07-24T03:01:01;39.50;;;34.70;;
52230;SDS011;38192;50.102;19.884;2022-07-24T03:03:26;38.50;;;31.92;;
52230;SDS011;38192;50.102;19.884;2022-07-24T03:05:52;39.80;;;30.92;;
52230;SDS011;38192;50.102;19.884;2022-07-24T03:08:18;32.88;;;28.55;;
52230;SDS011;38192;50.102;19.884;2022-07-24T03:10:44;31.02;;;26.38;;
52230;SDS011;38192;50.102;19.884;2022-07-24T03:13:10;32.08;;;28.58;;
52230;SDS011;38192;50.102;19.884;2022-07-24T03:15:37;30.77;;;26.20;;
52230;SDS011;38192;50.102;19.884;2022-07-24T03:18:03;39.97;;;31.02;;
52230;SDS011;38192;50.102;19.884;2022-07-24T03:20:29;35.00;;;28.42;;
52230;SDS011;38192;50.102;19.884;2022-07-24T03:22:55;33.53;;;30.02;;
52230;SDS011;38192;50.102;19.884;2022-07-24T03:25:21;35.42;;;31.15;;
52230;SDS011;38192;50.102;19.884;2022-07-24T03:27:47;37.70;;;33.50;;
52230;SDS011;38192;50.102;19.884;2022-07-24T03:30:14;32.90;;;28.45;;
52230;SDS011;38192;50.102;19.884;2022-07-24T03:32:40;34.08;;;26.77;;
52230;SDS011;38192;50.102;19.884;2022-07-24T03:35:06;30.23;;;26.75;;
52230;SDS011;38192;50.102;19.884;2022-07-24T03:37:32;28.90;;;25.80;;
52230;SDS011;38192;50.102;19.884;2022-07-24T03:39:58;32.08;;;25.55;;
52230;SDS011;38192;50.102;19.884;2022-07-24T03:42:24;28.70;;;23.98;;
52230;SDS011;38192;50.102;19.884;2022-07-24T03:44:50;30.98;;;24.92;;
52230;SDS011;38192;50.102;19.884;2022-07-24T03:47:16;27.55;;;24.38;;
52230;SDS011;38192;50.102;19.884;2022-07-24T03:49:42;29.02;;;22.45;;
52230;SDS011;38192;50.102;19.884;2022-07-24T03:52:08;26.30;;;23.27;;
52230;SDS011;38192;50.102;19.884;2022-07-24T03:54:33;25.23;;;22.20;;
52230;SDS011;38192;50.102;19.884;2022-07-24T03:56:59;24.77;;;22.08;;
52230;SDS011;38192;50.102;19.884;2022-07-24T03:59:25;24.52;;;21.05;;
52230;SDS011;38192;50.102;19.884;2022-07-24T04:01:51;26.77;;;21.52;;
52230;SDS011;38192;50.102;19.884;2022-07-24T04:04:17;24.48;;;20.45;;
52230;SDS011;38192;50.102;19.884;2022-07-24T04:06:42;23.80;;;19.42;;
52230;SDS011;38192;50.102;19.884;2022-07-24T04:09:08;23.92;;;21.25;;
52230;SDS011;38192;50.102;19.884;2022-07-24T04:11:35;25.77;;;21.27;;
52230;SDS011;38192;50.102;19.884;2022-07-24T04:14:01;23.85;;;21.48;;
52230;SDS011;38192;50.102;19.884;2022-07-24T04:16:26;22.83;;;20.20;;
52230;SDS011;38192;50.102;19.884;2022-07-24T04:18:52;24.48;;;20.25;;
52230;SDS011;38192;50.102;19.884;2022-07-24T04:21:18;28.50;;;20.17;;
52230;SDS011;38192;50.102;19.884;2022-07-24T04:23:44;25.27;;;20.80;;
52230;SDS011;38192;50.102;19.884;2022-07-24T04:26:10;20.70;;;18.58;;
52230;SDS011;38192;50.102;19.884;2022-07-24T04:28:36;20.83;;;18.48;;
52230;SDS011;38192;50.102;19.884;2022-07-24T04:31:02;24.10;;;19.92;;
52230;SDS011;38192;50.102;19.884;2022-07-24T04:33:28;21.30;;;18.02;;
52230;SDS011;38192;50.102;19.884;2022-07-24T04:35:54;23.17;;;19.33;;
52230;SDS011;38192;50.102;19.884;2022-07-24T04:38:20;20.83;;;17.65;;
52230;SDS011;38192;50.102;19.884;2022-07-24T04:40:46;20.65;;;17.98;;
52230;SDS011;38192;50.102;19.884;2022-07-24T04:43:11;22.95;;;17.67;;
52230;SDS011;38192;50.102;19.884;2022-07-24T04:45:37;20.33;;;16.70;;
52230;SDS011;38192;50.102;19.884;2022-07-24T04:48:03;20.42;;;15.50;;
52230;SDS011;38192;50.102;19.884;2022-07-24T04:50:29;19.50;;;16.83;;
52230;SDS011;38192;50.102;19.884;2022-07-24T04:52:56;21.10;;;16.15;;
52230;SDS011;38192;50.102;19.884;2022-07-24T04:55:21;19.20;;;15.18;;
52230;SDS011;38192;50.102;19.884;2022-07-24T04:57:47;21.20;;;15.43;;
52230;SDS011;38192;50.102;19.884;2022-07-24T05:00:13;17.65;;;15.02;;
52230;SDS011;38192;50.102;19.884;2022-07-24T05:02:39;18.05;;;14.20;;
52230;SDS011;38192;50.102;19.884;2022-07-24T05:05:05;19.52;;;13.95;;
52230;SDS011;38192;50.102;19.884;2022-07-24T05:07:31;18.95;;;13.85;;
52230;SDS011;38192;50.102;19.884;2022-07-24T05:09:57;16.13;;;14.27;;
52230;SDS011;38192;50.102;19.884;2022-07-24T05:12:23;17.33;;;14.32;;
52230;SDS011;38192;50.102;19.884;2022-07-24T05:14:50;21.00;;;13.68;;
52230;SDS011;38192;50.102;19.884;2022-07-24T05:17:16;15.30;;;13.25;;
52230;SDS011;38192;50.102;19.884;2022-07-24T05:19:42;20.13;;;13.77;;
52230;SDS011;38192;50.102;19.884;2022-07-24T05:22:07;14.32;;;12.52;;
52230;SDS011;38192;50.102;19.884;2022-07-24T05:24:33;15.90;;;14.20;;
52230;SDS011;38192;50.102;19.884;2022-07-24T05:26:59;13.95;;;11.77;;
52230;SDS011;38192;50.102;19.884;2022-07-24T05:29:25;17.05;;;12.88;;
52230;SDS011;38192;50.102;19.884;2022-07-24T05:31:51;16.42;;;13.20;;
52230;SDS011;38192;50.102;19.884;2022-07-24T05:34:19;15.43;;;13.27;;
52230;SDS011;38192;50.102;19.884;2022-07-24T05:36:46;15.45;;;11.73;;
52230;SDS011;38192;50.102;19.884;2022-07-24T05:39:11;16.42;;;11.50;;
52230;SDS011;38192;50.102;19.884;2022-07-24T05:41:37;13.07;;;10.80;;
52230;SDS011;38192;50.102;19.884;2022-07-24T05:44:03;15.52;;;10.38;;
52230;SDS011;38192;50.102;19.884;2022-07-24T05:46:29;14.20;;;10.48;;
52230;SDS011;38192;50.102;19.884;2022-07-24T05:48:55;14.93;;;10.85;;
52230;SDS011;38192;50.102;19.884;2022-07-24T05:51:20;12.30;;;9.35;;
52230;SDS011;38192;50.102;19.884;2022-07-24T05:53:46;14.88;;;10.40;;
52230;SDS011;38192;50.102;19.884;2022-07-24T05:56:12;14.75;;;10.20;;
52230;SDS011;38192;50.102;19.884;2022-07-24T05:58:38;11.75;;;8.90;;
52230;SDS011;38192;50.102;19.884;2022-07-24T06:01:04;11.50;;;9.18;;
52230;SDS011;38192;50.102;19.884;2022-07-24T06:03:30;15.35;;;9.48;;
52230;SDS011;38192;50.102;19.884;2022-07-24T06:05:55;11.13;;;8.35;;
52230;SDS011;38192;50.102;19.884;2022-07-24T06:08:21;9.80;;;8.13;;
52230;SDS011;38192;50.102;19.884;2022-07-24T06:10:47;13.68;;;8.13;;
52230;SDS011;38192;50.102;19.884;2022-07-24T06:13:13;10.60;;;7.68;;
52230;SDS011;38192;50.102;19.884;2022-07-24T06:15:39;14.93;;;7.45;;
52230;SDS011;38192;50.102;19.884;2022-07-24T06:18:05;9.00;;;5.60;;
52230;SDS011;38192;50.102;19.884;2022-07-24T06:20:30;8.32;;;5.53;;
52230;SDS011;38192;50.102;19.884;2022-07-24T06:22:56;5.28;;;4.53;;
52230;SDS011;38192;50.102;19.884;2022-07-24T06:25:22;6.57;;;4.18;;
52230;SDS011;38192;50.102;19.884;2022-07-24T06:27:49;5.70;;;4.00;;
52230;SDS011;38192;50.102;19.884;2022-07-24T06:30:25;8.32;;;4.75;;
52230;SDS011;38192;50.102;19.884;2022-07-24T06:32:52;8.85;;;4.13;;
52230;SDS011;38192;50.102;19.884;2022-07-24T06:35:20;6.15;;;3.80;;
52230;SDS011;38192;50.102;19.884;2022-07-24T06:37:46;6.13;;;3.50;;
52230;SDS011;38192;50.102;19.884;2022-07-24T06:40:13;7.90;;;3.35;;
52230;SDS011;38192;50.102;19.884;2022-07-24T06:42:40;8.07;;;4.03;;
52230;SDS011;38192;50.102;19.884;2022-07-24T06:45:06;6.00;;;3.45;;
52230;SDS011;38192;50.102;19.884;2022-07-24T06:47:32;5.40;;;3.55;;
52230;SDS011;38192;50.102;19.884;2022-07-24T06:49:58;7.47;;;4.00;;
52230;SDS011;38192;50.102;19.884;2022-07-24T06:52:24;4.78;;;3.35;;
52230;SDS011;38192;50.102;19.884;2022-07-24T06:54:50;6.75;;;3.83;;
52230;SDS011;38192;50.102;19.884;2022-07-24T06:57:15;7.22;;;3.75;;
52230;SDS011;38192;50.102;19.884;2022-07-24T06:59:43;4.43;;;3.55;;
52230;SDS011;38192;50.102;19.884;2022-07-24T07:02:09;9.55;;;3.63;;
52230;SDS011;38192;50.102;19.884;2022-07-24T07:04:35;6.47;;;3.45;;
52230;SDS011;38192;50.102;19.884;2022-07-24T07:07:02;8.52;;;3.55;;
52230;SDS011;38192;50.102;19.884;2022-07-24T07:09:28;6.95;;;3.28;;
52230;SDS011;38192;50.102;19.884;2022-07-24T07:11:54;5.20;;;3.08;;
52230;SDS011;38192;50.102;19.884;2022-07-24T07:14:20;5.78;;;3.17;;
52230;SDS011;38192;50.102;19.884;2022-07-24T07:16:46;8.73;;;2.92;;
52230;SDS011;38192;50.102;19.884;2022-07-24T07:19:13;6.30;;;3.40;;
52230;SDS011;38192;50.102;19.884;2022-07-24T07:21:39;4.78;;;3.10;;
52230;SDS011;38192;50.102;19.884;2022-07-24T07:24:05;7.38;;;3.22;;
52230;SDS011;38192;50.102;19.884;2022-07-24T07:26:31;5.00;;;2.65;;
52230;SDS011;38192;50.102;19.884;2022-07-24T07:28:57;7.32;;;3.15;;
52230;SDS011;38192;50.102;19.884;2022-07-24T07:31:23;4.47;;;2.75;;
52230;SDS011;38192;50.102;19.884;2022-07-24T07:33:50;4.80;;;3.10;;
52230;SDS011;38192;50.102;19.884;2022-07-24T07:36:16;6.38;;;2.83;;
52230;SDS011;38192;50.102;19.884;2022-07-24T07:38:41;4.82;;;2.58;;
52230;SDS011;38192;50.102;19.884;2022-07-24T07:41:07;4.35;;;2.90;;
52230;SDS011;38192;50.102;19.884;2022-07-24T07:43:33;5.10;;;2.58;;
52230;SDS011;38192;50.102;19.884;2022-07-24T07:45:59;4.63;;;3.20;;
52230;SDS011;38192;50.102;19.884;2022-07-24T07:48:25;8.30;;;2.78;;
52230;SDS011;38192;50.102;19.884;2022-07-24T07:50:52;7.80;;;2.78;;
52230;SDS011;38192;50.102;19.884;2022-07-24T07:53:18;5.05;;;2.80;;
52230;SDS011;38192;50.102;19.884;2022-07-24T07:55:44;5.57;;;3.10;;
52230;SDS011;38192;50.102;19.884;2022-07-24T07:58:13;5.97;;;3.10;;
52230;SDS011;38192;50.102;19.884;2022-07-24T08:00:40;5.10;;;3.20;;
52230;SDS011;38192;50.102;19.884;2022-07-24T08:03:06;4.07;;;2.83;;
52230;SDS011;38192;50.102;19.884;2022-07-24T08:05:32;4.47;;;2.92;;
52230;SDS011;38192;50.102;19.884;2022-07-24T08:07:57;11.20;;;3.10;;
52230;SDS011;38192;50.102;19.884;2022-07-24T08:10:23;11.15;;;3.08;;
52230;SDS011;38192;50.102;19.884;2022-07-24T08:12:49;5.30;;;2.95;;
52230;SDS011;38192;50.102;19.884;2022-07-24T08:15:15;5.80;;;2.42;;
52230;SDS011;38192;50.102;19.884;2022-07-24T08:17:42;4.70;;;2.53;;
52230;SDS011;38192;50.102;19.884;2022-07-24T08:20:08;5.82;;;2.60;;
52230;SDS011;38192;50.102;19.884;2022-07-24T08:22:34;3.88;;;2.72;;
52230;SDS011;38192;50.102;19.884;2022-07-24T08:25:00;3.63;;;2.53;;
52230;SDS011;38192;50.102;19.884;2022-07-24T08:27:26;2.50;;;1.90;;
52230;SDS011;38192;50.102;19.884;2022-07-24T08:29:52;5.95;;;2.65;;
52230;SDS011;38192;50.102;19.884;2022-07-24T08:32:19;5.32;;;2.53;;
52230;SDS011;38192;50.102;19.884;2022-07-24T08:34:45;5.10;;;2.58;;
52230;SDS011;38192;50.102;19.884;2022-07-24T08:37:11;5.43;;;2.63;;
52230;SDS011;38192;50.102;19.884;2022-07-24T08:39:37;2.97;;;2.55;;
52230;SDS011;38192;50.102;19.884;2022-07-24T08:42:03;3.63;;;2.88;;
52230;SDS011;38192;50.102;19.884;2022-07-24T08:44:31;4.30;;;2.95;;
52230;SDS011;38192;50.102;19.884;2022-07-24T08:46:58;8.77;;;3.03;;
52230;SDS011;38192;50.102;19.884;2022-07-24T08:49:24;3.50;;;2.58;;
52230;SDS011;38192;50.102;19.884;2022-07-24T08:51:55;5.00;;;2.72;;
52230;SDS011;38192;50.102;19.884;2022-07-24T08:54:23;5.53;;;2.45;;
52230;SDS011;38192;50.102;19.884;2022-07-24T08:56:50;5.07;;;2.72;;
52230;SDS011;38192;50.102;19.884;2022-07-24T08:59:16;6.88;;;2.90;;
52230;SDS011;38192;50.102;19.884;2022-07-24T09:01:43;9.27;;;3.00;;
52230;SDS011;38192;50.102;19.884;2022-07-24T09:06:58;5.70;;;3.03;;
52230;SDS011;38192;50.102;19.884;2022-07-24T09:09:25;4.60;;;2.70;;
52230;SDS011;38192;50.102;19.884;2022-07-24T09:14:40;4.43;;;2.92;;
52230;SDS011;38192;50.102;19.884;2022-07-24T09:17:11;3.78;;;2.92;;
52230;SDS011;38192;50.102;19.884;2022-07-24T09:27:33;7.35;;;3.17;;
52230;SDS011;38192;50.102;19.884;2022-07-24T09:30:00;6.97;;;2.78;;
52230;SDS011;38192;50.102;19.884;2022-07-24T09:32:26;4.93;;;2.70;;
52230;SDS011;38192;50.102;19.884;2022-07-24T09:34:52;9.98;;;3.10;;
52230;SDS011;38192;50.102;19.884;2022-07-24T09:37:19;7.20;;;3.60;;
52230;SDS011;38192;50.102;19.884;2022-07-24T09:39:47;5.72;;;2.92;;
52230;SDS011;38192;50.102;19.884;2022-07-24T09:42:13;7.38;;;3.63;;
52230;SDS011;38192;50.102;19.884;2022-07-24T09:44:39;4.13;;;3.10;;
52230;SDS011;38192;50.102;19.884;2022-07-24T09:47:06;5.43;;;2.88;;
52230;SDS011;38192;50.102;19.884;2022-07-24T09:49:34;6.65;;;3.15;;
52230;SDS011;38192;50.102;19.884;2022-07-24T09:54:42;5.53;;;3.65;;
52230;SDS011;38192;50.102;19.884;2022-07-24T09:59:43;5.65;;;3.17;;
52230;SDS011;38192;50.102;19.884;2022-07-24T10:02:22;6.30;;;4.13;;
52230;SDS011;38192;50.102;19.884;2022-07-24T10:04:50;4.35;;;3.60;;
52230;SDS011;38192;50.102;19.884;2022-07-24T10:07:19;5.80;;;3.88;;
52230;SDS011;38192;50.102;19.884;2022-07-24T10:09:47;5.28;;;3.67;;
52230;SDS011;38192;50.102;19.884;2022-07-24T10:12:16;5.78;;;3.38;;
52230;SDS011;38192;50.102;19.884;2022-07-24T10:14:45;6.63;;;2.90;;
52230;SDS011;38192;50.102;19.884;2022-07-24T10:17:13;4.03;;;3.15;;
52230;SDS011;38192;50.102;19.884;2022-07-24T10:19:44;12.40;;;3.72;;
52230;SDS011;38192;50.102;19.884;2022-07-24T10:22:12;6.63;;;4.10;;
52230;SDS011;38192;50.102;19.884;2022-07-24T10:24:58;5.93;;;3.67;;
52230;SDS011;38192;50.102;19.884;2022-07-24T10:27:38;8.55;;;5.72;;
52230;SDS011;38192;50.102;19.884;2022-07-24T10:30:08;7.05;;;3.90;;
52230;SDS011;38192;50.102;19.884;2022-07-24T10:32:35;8.93;;;4.22;;
52230;SDS011;38192;50.102;19.884;2022-07-24T10:35:21;6.07;;;4.22;;
52230;SDS011;38192;50.102;19.884;2022-07-24T10:41:05;8.03;;;4.40;;
52230;SDS011;38192;50.102;19.884;2022-07-24T10:43:38;7.22;;;4.25;;
52230;SDS011;38192;50.102;19.884;2022-07-24T10:48:30;5.05;;;3.83;;
52230;SDS011;38192;50.102;19.884;2022-07-24T11:09:14;7.07;;;4.63;;
52230;SDS011;38192;50.102;19.884;2022-07-24T11:12:15;4.85;;;4.30;;
52230;SDS011;38192;50.102;19.884;2022-07-24T11:20:10;7.22;;;5.18;;
52230;SDS011;38192;50.102;19.884;2022-07-24T11:22:43;6.80;;;4.32;;
52230;SDS011;38192;50.102;19.884;2022-07-24T11:25:13;5.13;;;4.38;;
52230;SDS011;38192;50.102;19.884;2022-07-24T11:27:46;5.50;;;3.95;;
52230;SDS011;38192;50.102;19.884;2022-07-24T11:32:44;6.40;;;4.38;;
52230;SDS011;38192;50.102;19.884;2022-07-24T11:35:11;8.98;;;3.67;;
52230;SDS011;38192;50.102;19.884;2022-07-24T11:37:38;5.72;;;4.50;;
52230;SDS011;38192;50.102;19.884;2022-07-24T11:40:05;5.80;;;4.45;;
52230;SDS011;38192;50.102;19.884;2022-07-24T11:42:33;8.80;;;4.95;;
52230;SDS011;38192;50.102;19.884;2022-07-24T11:44:59;6.45;;;4.90;;
52230;SDS011;38192;50.102;19.884;2022-07-24T11:47:26;6.38;;;4.38;;
52230;SDS011;38192;50.102;19.884;2022-07-24T11:52:22;4.53;;;3.80;;
52230;SDS011;38192;50.102;19.884;2022-07-24T11:54:50;6.97;;;4.28;;
52230;SDS011;38192;50.102;19.884;2022-07-24T11:57:27;6.43;;;4.07;;
52230;SDS011;38192;50.102;19.884;2022-07-24T11:59:55;6.05;;;3.80;;
52230;SDS011;38192;50.102;19.884;2022-07-24T12:02:21;10.45;;;4.13;;
52230;SDS011;38192;50.102;19.884;2022-07-24T12:04:48;6.28;;;4.03;;
52230;SDS011;38192;50.102;19.884;2022-07-24T12:07:16;6.13;;;3.50;;
52230;SDS011;38192;50.102;19.884;2022-07-24T12:09:55;5.53;;;4.13;;
52230;SDS011;38192;50.102;19.884;2022-07-24T12:12:23;5.95;;;4.50;;
52230;SDS011;38192;50.102;19.884;2022-07-24T12:14:54;6.22;;;4.20;;
52230;SDS011;38192;50.102;19.884;2022-07-24T12:17:30;4.95;;;3.90;;
52230;SDS011;38192;50.102;19.884;2022-07-24T12:19:57;5.88;;;4.57;;
52230;SDS011;38192;50.102;19.884;2022-07-24T12:22:25;6.10;;;4.03;;
52230;SDS011;38192;50.102;19.884;2022-07-24T12:24:52;5.45;;;3.95;;
52230;SDS011;38192;50.102;19.884;2022-07-24T12:27:32;5.65;;;4.28;;
52230;SDS011;38192;50.102;19.884;2022-07-24T12:30:04;8.90;;;3.70;;
52230;SDS011;38192;50.102;19.884;2022-07-24T12:32:56;5.63;;;3.80;;
52230;SDS011;38192;50.102;19.884;2022-07-24T12:35:24;8.27;;;3.72;;
52230;SDS011;38192;50.102;19.884;2022-07-24T12:37:51;7.80;;;3.10;;
52230;SDS011;38192;50.102;19.884;2022-07-24T12:40:34;4.35;;;3.85;;
52230;SDS011;38192;50.102;19.884;2022-07-24T12:43:06;5.03;;;3.67;;
52230;SDS011;38192;50.102;19.884;2022-07-24T12:50:36;6.25;;;3.47;;
52230;SDS011;38192;50.102;19.884;2022-07-24T12:53:06;5.40;;;4.05;;
52230;SDS011;38192;50.102;19.884;2022-07-24T12:55:34;5.38;;;3.50;;
52230;SDS011;38192;50.102;19.884;2022-07-24T12:58:02;5.85;;;3.50;;
52230;SDS011;38192;50.102;19.884;2022-07-24T13:00:29;4.00;;;3.53;;
52230;SDS011;38192;50.102;19.884;2022-07-24T13:02:56;8.65;;;3.78;;
52230;SDS011;38192;50.102;19.884;2022-07-24T13:05:41;4.60;;;4.05;;
52230;SDS011;38192;50.102;19.884;2022-07-24T13:08:10;5.43;;;3.60;;
52230;SDS011;38192;50.102;19.884;2022-07-24T13:10:36;4.53;;;3.67;;
52230;SDS011;38192;50.102;19.884;2022-07-24T13:13:02;4.68;;;3.42;;
52230;SDS011;38192;50.102;19.884;2022-07-24T13:15:28;6.20;;;4.00;;
52230;SDS011;38192;50.102;19.884;2022-07-24T13:17:54;5.97;;;3.30;;
52230;SDS011;38192;50.102;19.884;2022-07-24T13:20:20;5.80;;;3.83;;
52230;SDS011;38192;50.102;19.884;2022-07-24T13:22:46;4.15;;;3.83;;
52230;SDS011;38192;50.102;19.884;2022-07-24T13:25:12;7.97;;;3.78;;
52230;SDS011;38192;50.102;19.884;2022-07-24T13:27:38;5.30;;;4.03;;
52230;SDS011;38192;50.102;19.884;2022-07-24T13:30:04;10.95;;;4.00;;
52230;SDS011;38192;50.102;19.884;2022-07-24T13:32:30;4.65;;;3.67;;
52230;SDS011;38192;50.102;19.884;2022-07-24T13:34:55;4.43;;;3.47;;
52230;SDS011;38192;50.102;19.884;2022-07-24T13:37:21;5.85;;;3.80;;
52230;SDS011;38192;50.102;19.884;2022-07-24T13:39:47;4.57;;;3.63;;
52230;SDS011;38192;50.102;19.884;2022-07-24T13:42:13;7.38;;;3.50;;
52230;SDS011;38192;50.102;19.884;2022-07-24T13:44:40;5.15;;;3.72;;
52230;SDS011;38192;50.102;19.884;2022-07-24T13:47:06;6.32;;;4.07;;
52230;SDS011;38192;50.102;19.884;2022-07-24T13:49:32;4.07;;;3.35;;
52230;SDS011;38192;50.102;19.884;2022-07-24T13:51:58;3.40;;;3.10;;
52230;SDS011;38192;50.102;19.884;2022-07-24T13:54:24;3.75;;;2.83;;
52230;SDS011;38192;50.102;19.884;2022-07-24T13:56:50;4.65;;;3.40;;
52230;SDS011;38192;50.102;19.884;2022-07-24T13:59:17;4.07;;;2.90;;
52230;SDS011;38192;50.102;19.884;2022-07-24T14:01:43;4.43;;;3.85;;
52230;SDS011;38192;50.102;19.884;2022-07-24T14:04:09;4.93;;;3.30;;
52230;SDS011;38192;50.102;19.884;2022-07-24T14:06:35;3.40;;;3.00;;
52230;SDS011;38192;50.102;19.884;2022-07-24T14:09:02;3.92;;;3.10;;
52230;SDS011;38192;50.102;19.884;2022-07-24T14:11:28;6.45;;;3.10;;
52230;SDS011;38192;50.102;19.884;2022-07-24T14:13:54;6.05;;;3.10;;
52230;SDS011;38192;50.102;19.884;2022-07-24T14:16:20;3.28;;;2.90;;
52230;SDS011;38192;50.102;19.884;2022-07-24T14:18:46;5.72;;;3.50;;
52230;SDS011;38192;50.102;19.884;2022-07-24T14:21:12;4.75;;;3.30;;
52230;SDS011;38192;50.102;19.884;2022-07-24T14:23:38;3.78;;;2.65;;
52230;SDS011;38192;50.102;19.884;2022-07-24T14:26:03;3.90;;;3.10;;
52230;SDS011;38192;50.102;19.884;2022-07-24T14:28:31;5.32;;;3.30;;
52230;SDS011;38192;50.102;19.884;2022-07-24T14:30:57;3.58;;;2.70;;
52230;SDS011;38192;50.102;19.884;2022-07-24T14:33:23;5.75;;;3.10;;
52230;SDS011;38192;50.102;19.884;2022-07-24T14:35:48;3.33;;;2.97;;
52230;SDS011;38192;50.102;19.884;2022-07-24T14:38:14;6.13;;;3.28;;
52230;SDS011;38192;50.102;19.884;2022-07-24T14:40:40;6.22;;;3.30;;
52230;SDS011;38192;50.102;19.884;2022-07-24T14:43:06;4.32;;;3.13;;
52230;SDS011;38192;50.102;19.884;2022-07-24T14:45:32;4.05;;;3.03;;
52230;SDS011;38192;50.102;19.884;2022-07-24T14:47:58;3.65;;;3.05;;
52230;SDS011;38192;50.102;19.884;2022-07-24T14:50:24;4.53;;;2.80;;
52230;SDS011;38192;50.102;19.884;2022-07-24T14:52:50;5.25;;;2.90;;
52230;SDS011;38192;50.102;19.884;2022-07-24T14:55:15;4.05;;;2.35;;
52230;SDS011;38192;50.102;19.884;2022-07-24T14:57:41;2.80;;;2.60;;
52230;SDS011;38192;50.102;19.884;2022-07-24T15:00:07;3.75;;;2.80;;
52230;SDS011;38192;50.102;19.884;2022-07-24T15:02:34;5.55;;;2.80;;
52230;SDS011;38192;50.102;19.884;2022-07-24T15:05:00;3.70;;;2.60;;
52230;SDS011;38192;50.102;19.884;2022-07-24T15:07:26;4.95;;;2.95;;
52230;SDS011;38192;50.102;19.884;2022-07-24T15:09:52;7.70;;;3.13;;
52230;SDS011;38192;50.102;19.884;2022-07-24T15:12:18;3.97;;;2.83;;
52230;SDS011;38192;50.102;19.884;2022-07-24T15:14:44;4.90;;;2.95;;
52230;SDS011;38192;50.102;19.884;2022-07-24T15:17:10;5.95;;;2.70;;
52230;SDS011;38192;50.102;19.884;2022-07-24T15:19:36;5.22;;;2.60;;